createdAt,value
2017-03-01T13:01:16.224Z,67.44
2017-03-01T13:02:43.509Z,66.37
2017-03-01T13:03:55.655Z,66.99
2017-03-01T13:05:08.427Z,67.22
2017-03-01T13:07:48.967Z,65.01
2017-03-01T13:09:02.279Z,65.2
2017-03-01T13:10:15.564Z,65.5
2017-03-01T13:11:28.872Z,65.5
2017-03-01T13:12:42.201Z,66.37
2017-03-01T13:13:55.559Z,65.3
2017-03-01T13:15:22.899Z,65.4
2017-03-01T13:16:34.719Z,64.91
2017-03-01T13:18:02.643Z,64.55
2017-03-01T13:19:15.477Z,63.12
2017-03-01T13:20:28.972Z,63.21
2017-03-01T13:21:42.323Z,63.31
2017-03-01T13:23:09.646Z,64.78
2017-03-01T13:24:23.034Z,64
2017-03-01T13:25:50.409Z,65.04
2017-03-01T13:27:03.606Z,64.84
2017-03-01T13:28:30.915Z,65.04
2017-03-01T13:29:43.648Z,64.36
2017-03-01T13:30:56.934Z,64.94
2017-03-01T13:32:09.654Z,64.75
2017-03-01T13:33:22.961Z,64.29
2017-03-01T13:36:01.862Z,64.55
2017-03-01T13:37:15.400Z,64.65
2017-03-01T13:38:28.708Z,65.43
2017-03-01T13:39:55.989Z,64.94
2017-03-01T13:41:08.141Z,64.16
2017-03-01T13:42:21.633Z,63.28
2017-03-01T13:43:34.937Z,63.7
2017-03-01T13:44:47.660Z,63.02
2017-03-01T13:46:00.956Z,63.05
2017-03-01T13:47:28.210Z,63.34
2017-03-01T13:48:41.495Z,61.3
2017-03-01T13:49:54.778Z,61.2
2017-03-01T13:51:06.930Z,62.95
2017-03-01T13:52:18.553Z,62.85
2017-03-01T13:53:31.461Z,62.37
2017-03-01T13:54:58.159Z,61.49
2017-03-01T13:56:25.421Z,62.27
2017-03-01T13:57:38.137Z,61.82
2017-03-01T13:58:51.429Z,61.62
2017-03-01T14:00:04.179Z,61.62
2017-03-01T14:01:18.482Z,60.94
2017-03-01T14:02:45.413Z,60.55
2017-03-01T14:04:12.372Z,60.45
2017-03-01T14:05:29.067Z,59.89
2017-03-01T14:06:42.362Z,59.99
2017-03-01T14:07:53.944Z,60.18
2017-03-01T14:09:07.236Z,61.06
2017-03-01T14:10:20.548Z,61.72
2017-03-01T14:11:47.447Z,60.35
2017-03-01T14:13:00.944Z,60.67
2017-03-01T14:14:13.684Z,61.16
2017-03-01T14:15:26.998Z,59.99
2017-03-01T14:16:54.268Z,59.33
2017-03-01T14:18:07.562Z,59.92
2017-03-01T14:19:20.846Z,60.11
2017-03-01T14:20:34.130Z,60.38
2017-03-01T14:22:01.392Z,59.43
2017-03-01T14:23:14.879Z,58.16
2017-03-01T14:24:28.188Z,59.07
2017-03-01T14:25:41.497Z,57.99
2017-03-01T14:26:54.809Z,57.5
2017-03-01T14:29:49.463Z,57.5
2017-03-01T14:31:16.751Z,57.11
2017-03-01T14:32:44.035Z,57.99
2017-03-01T14:33:57.333Z,58.84
2017-03-01T14:35:10.663Z,59.04
2017-03-01T14:36:23.409Z,58.81
2017-03-01T14:37:36.135Z,58.42
2017-03-01T14:38:49.442Z,58.62
2017-03-01T14:40:02.353Z,58.75
2017-03-01T14:41:15.068Z,58.72
2017-03-01T14:42:42.337Z,59.2
2017-03-01T14:43:55.612Z,58.72
2017-03-01T14:45:09.138Z,59.2
2017-03-01T14:46:22.443Z,59.01
2017-03-01T14:47:35.717Z,58.16
2017-03-01T14:48:49.023Z,58.62
2017-03-01T14:50:02.313Z,59.57
2017-03-01T14:51:15.616Z,60.55
2017-03-01T14:52:28.966Z,60.91
2017-03-01T14:53:42.254Z,61.79
2017-03-01T14:54:55.552Z,61.1
2017-03-01T14:56:08.840Z,60.35
2017-03-01T14:57:22.141Z,60.64
2017-03-01T14:58:35.419Z,62.18
2017-03-01T14:59:48.715Z,61.85
2017-03-01T15:01:02.226Z,61.36
2017-03-01T15:02:15.518Z,61.36
2017-03-01T15:03:28.810Z,62.92
2017-03-01T15:04:42.106Z,62.15
2017-03-01T15:05:55.387Z,63.09
2017-03-01T15:07:08.884Z,62.6
2017-03-01T15:08:22.180Z,62.6
2017-03-01T15:09:35.459Z,62.31
2017-03-01T15:10:48.180Z,61.92
2017-03-01T15:12:15.458Z,61.53
2017-03-01T15:13:28.733Z,62.05
2017-03-01T15:14:42.026Z,60.71
2017-03-01T15:15:54.755Z,59.83
2017-03-01T15:17:08.242Z,60.13
2017-03-01T15:18:20.988Z,61.2
2017-03-01T15:19:34.279Z,61.46
2017-03-01T15:20:47.003Z,61.85
2017-03-01T15:21:59.719Z,61.17
2017-03-01T15:23:12.428Z,61
2017-03-01T15:24:25.722Z,60.71
2017-03-01T15:25:53.001Z,61.56
2017-03-01T15:27:06.284Z,62.05
2017-03-01T15:28:18.434Z,61.76
2017-03-01T15:29:31.157Z,61.66
2017-03-01T15:30:43.903Z,61.46
2017-03-01T15:31:56.615Z,61.33
2017-03-01T15:33:09.902Z,61.43
2017-03-01T15:34:22.621Z,62.02
2017-03-01T15:35:35.338Z,62.38
2017-03-01T15:36:48.054Z,61.99
2017-03-01T15:38:01.383Z,61.79
2017-03-01T15:39:14.957Z,62.47
2017-03-01T15:40:28.233Z,63.09
2017-03-01T15:41:41.513Z,62.28
2017-03-01T15:42:53.660Z,62.89
2017-03-01T15:44:06.382Z,63.38
2017-03-01T15:45:19.116Z,62.79
2017-03-01T15:46:32.411Z,63.48
2017-03-01T15:47:45.698Z,62.31
2017-03-01T15:48:59.019Z,63.18
2017-03-01T15:50:12.344Z,63.25
2017-03-01T15:51:25.077Z,62.08
2017-03-01T15:52:52.341Z,61.99
2017-03-01T15:54:05.846Z,62.79
2017-03-01T15:55:19.155Z,61.72
2017-03-01T15:56:31.318Z,61.72
2017-03-01T15:57:42.923Z,61.92
2017-03-01T15:58:55.656Z,62.41
2017-03-01T16:00:23.219Z,62.89
2017-03-01T16:01:50.482Z,61.66
2017-03-01T16:03:03.205Z,61.27
2017-03-01T16:04:16.514Z,61.04
2017-03-01T16:05:28.687Z,61.43
2017-03-01T16:06:41.991Z,61.33
2017-03-01T16:07:55.273Z,62.79
2017-03-01T16:10:36.038Z,62.24
2017-03-01T16:11:49.407Z,61.95
2017-03-01T16:13:02.700Z,61.27
2017-03-01T16:14:15.994Z,61.56
2017-03-01T16:15:43.270Z,61.36
2017-03-01T16:16:56.009Z,61.07
2017-03-01T16:18:08.731Z,61.43
2017-03-01T16:19:20.883Z,61.72
2017-03-01T16:20:34.159Z,61.53
2017-03-01T16:21:47.783Z,61.92
2017-03-01T16:23:01.100Z,62.12
2017-03-01T16:24:14.387Z,61.63
2017-03-01T16:25:27.092Z,61.14
2017-03-01T16:26:40.591Z,61.14
2017-03-01T16:27:53.307Z,61.63
2017-03-01T16:29:06.616Z,61.92
2017-03-01T16:30:19.896Z,62.05
2017-03-01T16:31:32.639Z,62.53
2017-03-01T16:32:46.142Z,61.85
2017-03-01T16:33:59.421Z,61.66
2017-03-01T16:35:12.749Z,60.97
2017-03-01T16:36:26.084Z,60.94
2017-03-01T16:37:38.254Z,62.02
2017-03-01T16:38:51.542Z,62.08
2017-03-01T16:40:18.794Z,62.08
2017-03-01T16:41:46.071Z,61.89
2017-03-01T16:42:59.653Z,62.31
2017-03-01T16:44:12.957Z,61.04
2017-03-01T16:45:26.251Z,58.6
2017-03-01T16:46:38.470Z,59.19
2017-03-01T16:48:05.889Z,59.48
2017-03-01T16:49:18.672Z,59.58
2017-03-01T16:50:31.961Z,59.28
2017-03-01T16:51:45.258Z,59.87
2017-03-01T16:52:58.038Z,60.1
2017-03-01T16:54:11.586Z,59.8
2017-03-01T16:55:38.321Z,60
2017-03-01T16:57:05.045Z,59.7
2017-03-01T16:58:18.635Z,60
2017-03-01T16:59:45.903Z,59.54
2017-03-01T17:01:13.206Z,59.02
2017-03-01T17:02:26.542Z,58.24
2017-03-01T17:03:39.299Z,58.63
2017-03-01T17:04:52.641Z,59.02
2017-03-01T17:06:07.202Z,58.92
2017-03-01T17:07:19.977Z,58.92
2017-03-01T17:08:33.547Z,58.73
2017-03-01T17:09:46.323Z,59.97
2017-03-01T17:11:13.666Z,60.46
2017-03-01T17:12:40.958Z,59.58
2017-03-01T17:13:53.731Z,59.09
2017-03-01T17:15:07.073Z,59.19
2017-03-01T17:16:19.822Z,60.06
2017-03-01T17:17:32.585Z,59.48
2017-03-01T17:18:45.898Z,59.22
2017-03-01T17:19:59.238Z,59.41
2017-03-01T17:21:12.592Z,59.9
2017-03-01T17:22:25.931Z,59.7
2017-03-01T17:23:39.244Z,58.14
2017-03-01T17:24:51.981Z,58.53
2017-03-01T17:26:05.337Z,58.24
2017-03-01T17:27:18.680Z,59.12
2017-03-01T17:28:32.074Z,59.51
2017-03-01T17:29:59.433Z,59.83
2017-03-01T17:31:12.809Z,60.49
2017-03-01T17:32:26.116Z,60.29
2017-03-01T17:33:38.851Z,60.1
2017-03-01T17:34:52.207Z,60.46
2017-03-01T17:36:06.388Z,60.46
2017-03-01T17:37:19.163Z,60.65
2017-03-01T17:38:31.962Z,60.06
2017-03-01T17:39:45.318Z,60.55
2017-03-01T17:40:58.953Z,60.85
2017-03-01T17:42:11.674Z,60.1
2017-03-01T17:43:24.537Z,59.8
2017-03-01T17:44:38.048Z,58.34
2017-03-01T17:46:04.792Z,57.75
2017-03-01T17:47:18.120Z,57.39
2017-03-01T17:48:31.479Z,56.61
2017-03-01T17:49:45.065Z,57.78
2017-03-01T17:50:58.396Z,56.61
2017-03-01T17:52:11.753Z,57.2
2017-03-01T17:53:25.107Z,57.49
2017-03-01T17:54:37.923Z,57.2
2017-03-01T17:55:51.255Z,56.9
2017-03-01T17:57:04.001Z,57.13
2017-03-01T17:58:17.343Z,57.42
2017-03-01T17:59:29.539Z,57.52
2017-03-01T18:00:42.895Z,57.29
2017-03-01T18:01:56.215Z,57.52
2017-03-01T18:03:09.804Z,58.11
2017-03-01T18:04:37.108Z,56.93
2017-03-01T18:05:50.458Z,56.05
2017-03-01T18:07:03.767Z,55.86
2017-03-01T18:08:29.938Z,55.47
2017-03-01T18:09:43.487Z,54.52
2017-03-01T18:10:56.831Z,53.81
2017-03-01T18:12:10.183Z,53.81
2017-03-01T18:13:22.921Z,53.91
2017-03-01T18:14:36.275Z,55.47
2017-03-01T18:15:49.628Z,55.66
2017-03-01T18:17:02.985Z,55.47
2017-03-01T18:18:16.533Z,55.57
2017-03-01T18:19:29.283Z,55.66
2017-03-01T18:20:42.625Z,54.3
2017-03-01T18:21:55.394Z,54.59
2017-03-01T18:23:08.728Z,54.1
2017-03-01T18:24:22.092Z,54.88
2017-03-01T18:25:35.453Z,54.98
2017-03-01T18:26:48.237Z,55.18
2017-03-01T18:28:01.837Z,54.69
2017-03-01T18:29:15.171Z,54.98
2017-03-01T18:30:42.487Z,55.27
2017-03-01T18:31:55.831Z,55.86
2017-03-01T18:33:09.188Z,55.08
2017-03-01T18:34:22.545Z,55.08
2017-03-01T18:35:34.758Z,55.57
2017-03-01T18:36:48.133Z,55.57
2017-03-01T18:38:01.461Z,55.86
2017-03-01T18:39:14.829Z,55.73
2017-03-01T18:40:28.175Z,56.22
2017-03-01T18:41:41.548Z,56.51
2017-03-01T18:42:54.880Z,57
2017-03-01T18:44:08.189Z,57.26
2017-03-01T18:45:20.945Z,57.36
2017-03-01T18:46:33.766Z,57.65
2017-03-01T18:48:01.073Z,57.85
2017-03-01T18:49:14.409Z,57.85
2017-03-01T18:50:27.159Z,58.24
2017-03-01T18:51:39.909Z,57.95
2017-03-01T18:53:07.208Z,58.63
2017-03-01T18:54:34.523Z,60.68
2017-03-01T18:55:47.834Z,62.53
2017-03-01T18:57:00.590Z,64.09
2017-03-01T18:58:13.929Z,65.66
2017-03-01T18:59:27.292Z,66.79
2017-03-01T19:00:40.659Z,66.93
2017-03-01T19:01:53.983Z,66.41
2017-03-01T19:03:07.330Z,65.33
2017-03-01T19:04:20.698Z,66.27
2017-03-01T19:05:33.471Z,66.37
2017-03-01T19:06:46.813Z,66.27
2017-03-01T19:08:14.109Z,66.76
2017-03-01T19:09:27.463Z,66.73
2017-03-01T19:10:40.195Z,67.02
2017-03-01T19:11:52.944Z,66.14
2017-03-01T19:13:20.208Z,67.02
2017-03-01T19:14:33.552Z,67.32
2017-03-01T19:15:46.291Z,67.02
2017-03-01T19:16:59.601Z,67.32
2017-03-01T19:18:26.879Z,66.73
2017-03-01T19:19:40.456Z,67.22
2017-03-01T19:20:53.764Z,67.02
2017-03-01T19:22:05.907Z,66.27
2017-03-01T19:23:18.092Z,66.66
2017-03-01T19:24:31.385Z,65.88
2017-03-01T19:25:44.683Z,66.17
2017-03-01T19:26:57.405Z,65.59
2017-03-01T19:28:09.565Z,65.5
2017-03-01T19:29:22.859Z,65.59
2017-03-01T19:30:35.586Z,65.4
2017-03-01T19:31:48.864Z,65.98
2017-03-01T19:33:02.173Z,65.88
2017-03-01T19:34:14.893Z,65.88
2017-03-01T19:35:28.216Z,65.69
2017-03-01T19:36:41.702Z,65.3
2017-03-01T19:37:55.000Z,65.11
2017-03-01T19:39:08.333Z,65.5
2017-03-01T19:40:21.048Z,64.91
2017-03-01T19:41:34.549Z,65.82
2017-03-01T19:42:47.838Z,65.43
2017-03-01T19:44:01.132Z,63.87
2017-03-01T19:45:13.849Z,64.06
2017-03-01T19:46:27.137Z,64.84
2017-03-01T19:47:40.439Z,63.48
2017-03-01T19:48:53.171Z,63.87
2017-03-01T19:50:06.467Z,64.55
2017-03-01T19:51:32.596Z,63.96
2017-03-01T19:52:45.876Z,64.06
2017-03-01T19:53:58.610Z,64.26
2017-03-01T19:55:11.901Z,64.36
2017-03-01T19:56:25.195Z,63.7
2017-03-01T19:57:37.607Z,64.19
2017-03-01T19:59:04.870Z,63.41
2017-03-01T20:00:17.588Z,63.28
2017-03-01T20:01:30.303Z,63.02
2017-03-01T20:02:43.320Z,63.38
2017-03-01T20:03:56.036Z,63.18
2017-03-01T20:05:09.328Z,63.38
2017-03-01T20:06:22.613Z,63.18
2017-03-01T20:07:50.875Z,63.28
2017-03-01T20:09:03.600Z,63.35
2017-03-01T20:10:16.316Z,63.64
2017-03-01T20:11:29.044Z,63.38
2017-03-01T20:12:42.326Z,63.77
2017-03-01T20:13:55.649Z,64.45
2017-03-01T20:15:08.949Z,63.77
2017-03-01T20:16:21.669Z,63.67
2017-03-01T20:17:34.967Z,63.28
2017-03-01T20:18:48.453Z,63.28
2017-03-01T20:20:01.161Z,62.92
2017-03-01T20:21:14.447Z,63.18
2017-03-01T20:22:27.725Z,63.12
2017-03-01T20:23:40.467Z,63.38
2017-03-01T20:24:53.205Z,63.09
2017-03-01T20:26:06.487Z,63.38
2017-03-01T20:27:18.665Z,63.67
2017-03-01T20:28:31.953Z,63.48
2017-03-01T20:29:45.459Z,63.28
2017-03-01T20:30:58.744Z,63.38
2017-03-01T20:32:12.044Z,63.67
2017-03-01T20:34:52.584Z,63.28
2017-03-01T20:36:05.877Z,63.15
2017-03-01T20:37:18.600Z,63.54
2017-03-01T20:38:31.876Z,63.54
2017-03-01T20:39:45.184Z,63.45
2017-03-01T20:42:25.787Z,64.32
2017-03-01T20:43:38.494Z,64.29
2017-03-01T20:45:05.751Z,64.29
2017-03-01T20:46:19.026Z,64.59
2017-03-01T20:47:31.730Z,64.69
2017-03-01T20:48:45.014Z,64.13
2017-03-01T20:49:58.310Z,64.72
2017-03-01T20:51:25.266Z,64.78
2017-03-01T20:52:38.556Z,64.59
2017-03-01T20:53:51.259Z,64
2017-03-01T20:55:04.543Z,64.59
2017-03-01T20:56:17.822Z,64.97
2017-03-01T20:57:31.091Z,64.87
2017-03-01T20:58:42.671Z,64.29
2017-03-01T21:00:09.370Z,64.94
2017-03-01T21:01:22.878Z,64.65
2017-03-01T21:02:35.606Z,63.9
2017-03-01T21:03:48.901Z,64
2017-03-01T21:05:02.178Z,64.1
2017-03-01T21:06:15.449Z,64.1
2017-03-01T21:07:28.931Z,64.59
2017-03-01T21:08:41.653Z,64.39
2017-03-01T21:09:54.371Z,64.87
2017-03-01T21:11:07.664Z,65.14
2017-03-01T21:12:20.391Z,65.43
2017-03-01T21:13:33.514Z,64.94
2017-03-01T21:14:46.803Z,65.92
2017-03-01T21:15:59.538Z,65.72
2017-03-01T21:17:12.813Z,65.88
2017-03-01T21:18:26.321Z,66.02
2017-03-01T21:19:39.623Z,66.31
2017-03-01T21:20:52.904Z,66.47
2017-03-01T21:22:05.658Z,66.27
2017-03-01T21:23:18.376Z,66.08
2017-03-01T21:24:31.669Z,66.69
2017-03-01T21:25:44.447Z,66.86
2017-03-01T21:26:57.941Z,66.76
2017-03-01T21:28:11.234Z,66.89
2017-03-01T21:29:24.717Z,66.66
2017-03-01T21:30:38.199Z,66.96
2017-03-01T21:31:51.924Z,66.6
2017-03-01T21:33:05.617Z,66.96
2017-03-01T21:34:32.529Z,67.08
2017-03-01T21:35:45.812Z,66.6
2017-03-01T21:36:58.529Z,66.79
2017-03-01T21:38:11.811Z,66.79
2017-03-01T21:39:25.352Z,67.05
2017-03-01T21:40:38.624Z,66.89
2017-03-01T21:42:05.909Z,66.76
2017-03-01T21:43:19.208Z,68.02
2017-03-01T21:44:32.695Z,67.54
2017-03-01T21:45:45.398Z,68.02
2017-03-01T21:46:58.716Z,67.93
2017-03-01T21:48:25.978Z,67.83
2017-03-01T21:49:38.699Z,67.93
2017-03-01T21:50:51.414Z,67.83
2017-03-01T21:52:04.691Z,67.83
2017-03-01T21:53:17.985Z,67.83
2017-03-01T21:54:31.292Z,67.93
2017-03-01T21:55:43.660Z,68.71
2017-03-01T21:57:10.939Z,68.51
2017-03-01T21:58:24.237Z,68.8
2017-03-01T21:59:37.549Z,67.93
2017-03-01T22:01:04.243Z,67.83
2017-03-01T22:02:17.533Z,67.93
2017-03-01T22:03:44.801Z,68.32
2017-03-01T22:04:57.765Z,68.41
2017-03-01T22:06:11.056Z,67.93
2017-03-01T22:07:24.348Z,68.02
2017-03-01T22:08:37.835Z,67.93
2017-03-01T22:09:51.130Z,67.73
2017-03-01T22:12:45.708Z,68.61
2017-03-01T22:13:58.632Z,67.83
2017-03-01T22:15:12.416Z,67.93
2017-03-01T22:16:25.698Z,68.22
2017-03-01T22:17:38.674Z,67.54
2017-03-01T22:18:51.631Z,67.63
2017-03-01T22:20:18.883Z,68.41
2017-03-01T22:21:32.176Z,68.22
2017-03-01T22:22:45.484Z,68.12
2017-03-01T22:24:12.168Z,68.51
2017-03-01T22:25:25.472Z,68.41
2017-03-01T22:26:38.764Z,68.8
2017-03-01T22:27:52.051Z,68.32
2017-03-01T22:29:05.351Z,68.51
2017-03-01T22:30:18.643Z,68.9
2017-03-01T22:31:31.349Z,68.12
2017-03-01T22:32:44.646Z,68.51
2017-03-01T22:33:57.944Z,68.51
2017-03-01T22:35:11.217Z,68.61
2017-03-01T22:36:24.154Z,68.51
2017-03-01T22:37:51.418Z,68.51
2017-03-01T22:39:04.698Z,68.71
2017-03-01T22:40:18.009Z,68.8
2017-03-01T22:41:31.596Z,68.51
2017-03-01T22:42:44.884Z,68.8
2017-03-01T22:43:57.623Z,68.41
2017-03-01T22:45:10.952Z,68.41
2017-03-01T22:46:24.261Z,68.8
2017-03-01T22:47:37.815Z,68.8
2017-03-01T22:48:51.106Z,68.61
2017-03-01T22:50:03.826Z,68.32
2017-03-01T22:51:17.118Z,68.51
2017-03-01T22:52:30.595Z,68.61
2017-03-01T22:53:43.884Z,68.32
2017-03-01T22:54:57.169Z,68.51
2017-03-01T22:56:10.483Z,68.51
2017-03-01T22:57:23.216Z,68.32
2017-03-01T22:58:35.949Z,68.51
2017-03-01T22:59:48.669Z,68.32
2017-03-01T23:01:00.817Z,68.12
2017-03-01T23:02:14.106Z,68.41
2017-03-01T23:03:27.376Z,68.41
2017-03-01T23:04:40.093Z,68.41
2017-03-01T23:05:53.382Z,67.54
2017-03-01T23:07:06.667Z,67.5
2017-03-01T23:08:19.967Z,67.93
2017-03-01T23:09:33.298Z,67.83
2017-03-01T23:12:13.851Z,67.63
2017-03-01T23:13:27.139Z,67.93
2017-03-01T23:14:40.430Z,67.9
2017-03-01T23:15:53.704Z,67.54
2017-03-01T23:17:06.990Z,68.02
2017-03-01T23:18:20.277Z,67.99
2017-03-01T23:19:33.198Z,68.29
2017-03-01T23:20:46.477Z,67.5
2017-03-01T23:21:59.776Z,68.61
2017-03-01T23:23:27.041Z,67.73
2017-03-01T23:24:39.762Z,68.71
2017-03-01T23:25:53.063Z,68.61
2017-03-01T23:27:06.349Z,68.41
2017-03-01T23:28:19.629Z,68.51
2017-03-01T23:29:32.925Z,68.41
2017-03-01T23:30:45.703Z,68.67
2017-03-01T23:31:58.027Z,68.67
2017-03-01T23:33:11.928Z,68.38
2017-03-01T23:34:26.261Z,68.96
2017-03-01T23:35:40.127Z,68.96
2017-03-01T23:36:53.360Z,68.96
2017-03-01T23:38:07.261Z,68.77
2017-03-01T23:39:21.131Z,68.77
2017-03-01T23:40:35.296Z,68.54
2017-03-01T23:41:49.186Z,68.25
2017-03-01T23:43:03.077Z,68.93
2017-03-01T23:44:16.956Z,69.42
2017-03-01T23:45:30.154Z,69.71
2017-03-01T23:46:43.395Z,69.42
2017-03-01T23:47:56.944Z,69.9
2017-03-01T23:49:10.425Z,69.38
2017-03-01T23:50:23.891Z,69.48
2017-03-01T23:51:37.578Z,69.87
2017-03-01T23:52:51.073Z,70.06
2017-03-01T23:54:04.526Z,69.87
2017-03-01T23:55:18.032Z,70.45
2017-03-01T23:56:31.533Z,70.45
2017-03-01T23:57:59.130Z,71.03
2017-03-01T23:59:12.607Z,71.1
